sensor_id;sensor_type;location;lat;lon;timestamp;temperature;humidity
51878;SHT31;37911;51.526;11.536;2023-05-10T00:00:15;11.77;67.08
51878;SHT31;37911;51.526;11.536;2023-05-10T00:03:18;11.55;67.42
51878;SHT31;37911;51.526;11.536;2023-05-10T00:06:25;11.35;68.10
51878;SHT31;37911;51.526;11.536;2023-05-10T00:09:28;11.20;68.61
51878;SHT31;37911;51.526;11.536;2023-05-10T00:12:31;11.20;68.69
51878;SHT31;37911;51.526;11.536;2023-05-10T00:15:34;11.25;69.04
51878;SHT31;37911;51.526;11.536;2023-05-10T00:18:37;11.23;69.11
51878;SHT31;37911;51.526;11.536;2023-05-10T00:21:43;11.29;68.60
51878;SHT31;37911;51.526;11.536;2023-05-10T00:24:46;11.23;68.86
51878;SHT31;37911;51.526;11.536;2023-05-10T00:27:50;11.26;68.76
51878;SHT31;37911;51.526;11.536;2023-05-10T00:30:55;11.14;69.13
51878;SHT31;37911;51.526;11.536;2023-05-10T00:33:58;11.09;69.09
51878;SHT31;37911;51.526;11.536;2023-05-10T00:37:04;10.95;69.33
51878;SHT31;37911;51.526;11.536;2023-05-10T00:40:08;10.84;69.73
51878;SHT31;37911;51.526;11.536;2023-05-10T00:43:11;10.89;69.54
51878;SHT31;37911;51.526;11.536;2023-05-10T00:46:15;10.87;69.89
51878;SHT31;37911;51.526;11.536;2023-05-10T00:49:19;10.71;70.09
51878;SHT31;37911;51.526;11.536;2023-05-10T00:52:26;10.60;70.28
51878;SHT31;37911;51.526;11.536;2023-05-10T00:55:30;10.47;70.69
51878;SHT31;37911;51.526;11.536;2023-05-10T00:58:33;10.33;71.27
51878;SHT31;37911;51.526;11.536;2023-05-10T01:01:37;10.34;71.45
51878;SHT31;37911;51.526;11.536;2023-05-10T01:04:41;10.23;72.02
51878;SHT31;37911;51.526;11.536;2023-05-10T01:07:46;10.23;72.14
51878;SHT31;37911;51.526;11.536;2023-05-10T01:10:50;10.30;71.84
51878;SHT31;37911;51.526;11.536;2023-05-10T01:13:56;10.18;72.27
51878;SHT31;37911;51.526;11.536;2023-05-10T01:17:00;10.24;72.17
51878;SHT31;37911;51.526;11.536;2023-05-10T01:20:05;10.37;71.72
51878;SHT31;37911;51.526;11.536;2023-05-10T01:23:31;10.48;71.52
51878;SHT31;37911;51.526;11.536;2023-05-10T01:27:01;10.60;71.38
51878;SHT31;37911;51.526;11.536;2023-05-10T01:30:44;10.58;71.45
51878;SHT31;37911;51.526;11.536;2023-05-10T01:33:59;10.64;71.45
51878;SHT31;37911;51.526;11.536;2023-05-10T01:37:07;10.65;71.44
51878;SHT31;37911;51.526;11.536;2023-05-10T01:40:17;10.48;72.11
51878;SHT31;37911;51.526;11.536;2023-05-10T01:43:27;10.47;72.00
51878;SHT31;37911;51.526;11.536;2023-05-10T01:46:34;10.47;72.25
51878;SHT31;37911;51.526;11.536;2023-05-10T01:49:44;10.41;72.39
51878;SHT31;37911;51.526;11.536;2023-05-10T01:52:51;10.30;72.73
51878;SHT31;37911;51.526;11.536;2023-05-10T01:55:56;10.44;72.47
51878;SHT31;37911;51.526;11.536;2023-05-10T01:59:00;10.44;72.24
51878;SHT31;37911;51.526;11.536;2023-05-10T02:02:08;10.47;72.15
51878;SHT31;37911;51.526;11.536;2023-05-10T02:05:16;10.47;72.27
51878;SHT31;37911;51.526;11.536;2023-05-10T02:08:22;10.43;72.37
51878;SHT31;37911;51.526;11.536;2023-05-10T02:11:27;10.41;72.37
51878;SHT31;37911;51.526;11.536;2023-05-10T02:14:34;10.44;72.48
51878;SHT31;37911;51.526;11.536;2023-05-10T02:17:38;10.43;72.51
51878;SHT31;37911;51.526;11.536;2023-05-10T02:20:45;10.37;72.69
51878;SHT31;37911;51.526;11.536;2023-05-10T02:23:52;10.41;72.32
51878;SHT31;37911;51.526;11.536;2023-05-10T02:26:57;10.48;72.44
51878;SHT31;37911;51.526;11.536;2023-05-10T02:30:01;10.54;72.19
51878;SHT31;37911;51.526;11.536;2023-05-10T02:33:06;10.44;73.03
51878;SHT31;37911;51.526;11.536;2023-05-10T02:36:12;10.55;72.73
51878;SHT31;37911;51.526;11.536;2023-05-10T02:39:17;10.58;72.41
51878;SHT31;37911;51.526;11.536;2023-05-10T02:42:24;10.51;72.47
51878;SHT31;37911;51.526;11.536;2023-05-10T02:45:30;10.55;72.89
51878;SHT31;37911;51.526;11.536;2023-05-10T02:48:34;10.55;73.03
51878;SHT31;37911;51.526;11.536;2023-05-10T02:51:43;10.58;72.86
51878;SHT31;37911;51.526;11.536;2023-05-10T02:54:50;10.57;72.31
51878;SHT31;37911;51.526;11.536;2023-05-10T02:57:58;10.57;72.04
51878;SHT31;37911;51.526;11.536;2023-05-10T03:01:01;10.54;73.01
51878;SHT31;37911;51.526;11.536;2023-05-10T03:04:05;10.61;72.26
51878;SHT31;37911;51.526;11.536;2023-05-10T03:07:11;10.61;72.20
51878;SHT31;37911;51.526;11.536;2023-05-10T03:10:15;10.58;71.98
51878;SHT31;37911;51.526;11.536;2023-05-10T03:13:29;10.61;71.88
51878;SHT31;37911;51.526;11.536;2023-05-10T03:16:41;10.64;72.48
51878;SHT31;37911;51.526;11.536;2023-05-10T03:19:48;10.65;72.31
51878;SHT31;37911;51.526;11.536;2023-05-10T03:23:01;10.45;72.45
51878;SHT31;37911;51.526;11.536;2023-05-10T03:26:06;10.47;72.62
51878;SHT31;37911;51.526;11.536;2023-05-10T03:29:11;10.60;72.10
51878;SHT31;37911;51.526;11.536;2023-05-10T03:32:15;10.69;71.95
51878;SHT31;37911;51.526;11.536;2023-05-10T03:35:18;10.67;71.98
51878;SHT31;37911;51.526;11.536;2023-05-10T03:38:24;10.74;72.17
51878;SHT31;37911;51.526;11.536;2023-05-10T03:41:28;10.69;72.25
51878;SHT31;37911;51.526;11.536;2023-05-10T03:44:32;10.75;71.80
51878;SHT31;37911;51.526;11.536;2023-05-10T03:47:36;10.81;71.70
51878;SHT31;37911;51.526;11.536;2023-05-10T03:50:39;10.68;72.25
51878;SHT31;37911;51.526;11.536;2023-05-10T03:53:45;10.68;72.34
51878;SHT31;37911;51.526;11.536;2023-05-10T03:56:49;10.77;72.00
51878;SHT31;37911;51.526;11.536;2023-05-10T03:59:55;10.81;71.87
51878;SHT31;37911;51.526;11.536;2023-05-10T04:02:58;10.82;71.73
51878;SHT31;37911;51.526;11.536;2023-05-10T04:06:03;10.84;71.85
51878;SHT31;37911;51.526;11.536;2023-05-10T04:09:11;10.91;71.71
51878;SHT31;37911;51.526;11.536;2023-05-10T04:12:14;10.99;71.70
51878;SHT31;37911;51.526;11.536;2023-05-10T04:15:17;10.94;71.87
51878;SHT31;37911;51.526;11.536;2023-05-10T04:18:20;11.01;72.10
51878;SHT31;37911;51.526;11.536;2023-05-10T04:21:24;11.02;72.12
51878;SHT31;37911;51.526;11.536;2023-05-10T04:24:29;11.12;71.72
51878;SHT31;37911;51.526;11.536;2023-05-10T04:27:33;11.22;71.44
51878;SHT31;37911;51.526;11.536;2023-05-10T04:30:36;11.28;70.49
51878;SHT31;37911;51.526;11.536;2023-05-10T04:33:40;11.22;70.52
51878;SHT31;37911;51.526;11.536;2023-05-10T04:36:43;11.19;70.93
51878;SHT31;37911;51.526;11.536;2023-05-10T04:39:49;11.29;70.42
51878;SHT31;37911;51.526;11.536;2023-05-10T04:42:53;11.33;70.59
51878;SHT31;37911;51.526;11.536;2023-05-10T04:45:56;11.39;70.22
51878;SHT31;37911;51.526;11.536;2023-05-10T04:48:59;11.35;71.12
51878;SHT31;37911;51.526;11.536;2023-05-10T04:52:02;11.42;70.68
51878;SHT31;37911;51.526;11.536;2023-05-10T04:55:08;11.36;71.05
51878;SHT31;37911;51.526;11.536;2023-05-10T04:58:12;11.46;70.82
51878;SHT31;37911;51.526;11.536;2023-05-10T05:01:15;11.49;70.87
51878;SHT31;37911;51.526;11.536;2023-05-10T05:04:18;11.58;70.55
51878;SHT31;37911;51.526;11.536;2023-05-10T05:07:23;11.60;70.51
51878;SHT31;37911;51.526;11.536;2023-05-10T05:10:29;11.69;70.33
51878;SHT31;37911;51.526;11.536;2023-05-10T05:13:32;11.60;70.38
51878;SHT31;37911;51.526;11.536;2023-05-10T05:16:36;11.73;70.42
51878;SHT31;37911;51.526;11.536;2023-05-10T05:19:39;11.79;70.15
51878;SHT31;37911;51.526;11.536;2023-05-10T05:22:42;11.91;70.14
51878;SHT31;37911;51.526;11.536;2023-05-10T05:25:48;11.80;70.26
51878;SHT31;37911;51.526;11.536;2023-05-10T05:28:51;11.84;70.13
51878;SHT31;37911;51.526;11.536;2023-05-10T05:31:55;11.94;70.02
51878;SHT31;37911;51.526;11.536;2023-05-10T05:34:58;11.93;70.08
51878;SHT31;37911;51.526;11.536;2023-05-10T05:38:02;12.11;69.56
51878;SHT31;37911;51.526;11.536;2023-05-10T05:41:08;12.17;69.75
51878;SHT31;37911;51.526;11.536;2023-05-10T05:44:11;12.33;69.25
51878;SHT31;37911;51.526;11.536;2023-05-10T05:47:14;12.55;69.73
51878;SHT31;37911;51.526;11.536;2023-05-10T05:50:18;12.68;69.30
51878;SHT31;37911;51.526;11.536;2023-05-10T05:53:21;12.95;68.16
51878;SHT31;37911;51.526;11.536;2023-05-10T05:56:27;13.12;68.10
51878;SHT31;37911;51.526;11.536;2023-05-10T05:59:30;13.29;67.25
51878;SHT31;37911;51.526;11.536;2023-05-10T06:02:33;13.40;66.90
51878;SHT31;37911;51.526;11.536;2023-05-10T06:05:36;13.56;66.76
51878;SHT31;37911;51.526;11.536;2023-05-10T06:08:40;13.51;66.59
51878;SHT31;37911;51.526;11.536;2023-05-10T06:11:45;13.54;67.32
51878;SHT31;37911;51.526;11.536;2023-05-10T06:14:49;13.59;67.06
51878;SHT31;37911;51.526;11.536;2023-05-10T06:17:52;13.63;67.07
51878;SHT31;37911;51.526;11.536;2023-05-10T06:20:55;13.67;67.43
51878;SHT31;37911;51.526;11.536;2023-05-10T06:23:59;13.67;67.62
51878;SHT31;37911;51.526;11.536;2023-05-10T06:27:06;13.59;67.91
51878;SHT31;37911;51.526;11.536;2023-05-10T06:30:10;13.78;67.70
51878;SHT31;37911;51.526;11.536;2023-05-10T06:33:15;14.04;67.18
51878;SHT31;37911;51.526;11.536;2023-05-10T06:36:19;14.28;66.97
51878;SHT31;37911;51.526;11.536;2023-05-10T06:39:22;14.41;66.61
51878;SHT31;37911;51.526;11.536;2023-05-10T06:42:28;14.55;66.16
51878;SHT31;37911;51.526;11.536;2023-05-10T06:45:31;14.61;65.89
51878;SHT31;37911;51.526;11.536;2023-05-10T06:48:34;14.69;65.71
51878;SHT31;37911;51.526;11.536;2023-05-10T06:51:37;14.77;65.06
51878;SHT31;37911;51.526;11.536;2023-05-10T06:54:41;14.65;65.90
51878;SHT31;37911;51.526;11.536;2023-05-10T06:57:49;14.75;65.61
51878;SHT31;37911;51.526;11.536;2023-05-10T07:00:53;14.80;65.62
51878;SHT31;37911;51.526;11.536;2023-05-10T07:03:56;14.96;65.56
51878;SHT31;37911;51.526;11.536;2023-05-10T07:06:59;15.14;65.12
51878;SHT31;37911;51.526;11.536;2023-05-10T07:10:03;15.22;64.66
51878;SHT31;37911;51.526;11.536;2023-05-10T07:13:09;15.27;64.85
51878;SHT31;37911;51.526;11.536;2023-05-10T07:16:13;15.30;65.15
51878;SHT31;37911;51.526;11.536;2023-05-10T07:19:16;15.46;65.15
51878;SHT31;37911;51.526;11.536;2023-05-10T07:22:19;15.62;65.04
51878;SHT31;37911;51.526;11.536;2023-05-10T07:25:23;15.74;63.17
51878;SHT31;37911;51.526;11.536;2023-05-10T07:28:29;15.80;62.14
51878;SHT31;37911;51.526;11.536;2023-05-10T07:31:32;15.92;62.77
51878;SHT31;37911;51.526;11.536;2023-05-10T07:34:35;16.06;62.97
51878;SHT31;37911;51.526;11.536;2023-05-10T07:37:38;16.05;63.23
51878;SHT31;37911;51.526;11.536;2023-05-10T07:40:41;16.09;63.27
51878;SHT31;37911;51.526;11.536;2023-05-10T07:43:47;16.19;63.98
51878;SHT31;37911;51.526;11.536;2023-05-10T07:46:51;16.32;63.45
51878;SHT31;37911;51.526;11.536;2023-05-10T07:49:54;16.39;63.52
51878;SHT31;37911;51.526;11.536;2023-05-10T07:52:57;16.48;63.85
51878;SHT31;37911;51.526;11.536;2023-05-10T07:56:20;16.51;64.42
51878;SHT31;37911;51.526;11.536;2023-05-10T07:59:26;16.57;64.21
51878;SHT31;37911;51.526;11.536;2023-05-10T08:02:29;16.53;64.85
51878;SHT31;37911;51.526;11.536;2023-05-10T08:05:32;16.59;65.34
51878;SHT31;37911;51.526;11.536;2023-05-10T08:08:35;16.59;66.08
51878;SHT31;37911;51.526;11.536;2023-05-10T08:11:39;16.66;66.63
51878;SHT31;37911;51.526;11.536;2023-05-10T08:14:44;16.80;66.61
51878;SHT31;37911;51.526;11.536;2023-05-10T08:17:48;16.79;66.81
51878;SHT31;37911;51.526;11.536;2023-05-10T08:20:51;16.76;67.18
51878;SHT31;37911;51.526;11.536;2023-05-10T08:23:54;16.67;68.21
51878;SHT31;37911;51.526;11.536;2023-05-10T08:26:58;16.62;68.70
51878;SHT31;37911;51.526;11.536;2023-05-10T08:30:05;16.56;69.32
51878;SHT31;37911;51.526;11.536;2023-05-10T08:33:08;16.65;69.22
51878;SHT31;37911;51.526;11.536;2023-05-10T08:36:11;16.66;69.62
51878;SHT31;37911;51.526;11.536;2023-05-10T08:39:19;16.66;69.81
51878;SHT31;37911;51.526;11.536;2023-05-10T08:42:25;16.59;70.35
51878;SHT31;37911;51.526;11.536;2023-05-10T08:45:37;16.53;70.84
51878;SHT31;37911;51.526;11.536;2023-05-10T08:48:41;16.67;71.65
51878;SHT31;37911;51.526;11.536;2023-05-10T08:51:49;16.80;71.63
51878;SHT31;37911;51.526;11.536;2023-05-10T08:54:53;16.81;71.64
51878;SHT31;37911;51.526;11.536;2023-05-10T08:57:57;16.75;72.07
51878;SHT31;37911;51.526;11.536;2023-05-10T09:01:03;16.72;71.75
51878;SHT31;37911;51.526;11.536;2023-05-10T09:04:07;16.60;71.91
51878;SHT31;37911;51.526;11.536;2023-05-10T09:07:11;16.65;72.85
51878;SHT31;37911;51.526;11.536;2023-05-10T09:10:14;16.70;72.64
51878;SHT31;37911;51.526;11.536;2023-05-10T09:13:18;16.63;72.64
51878;SHT31;37911;51.526;11.536;2023-05-10T09:16:24;16.69;73.24
51878;SHT31;37911;51.526;11.536;2023-05-10T09:19:28;16.66;73.23
51878;SHT31;37911;51.526;11.536;2023-05-10T09:22:31;16.70;73.30
51878;SHT31;37911;51.526;11.536;2023-05-10T09:25:35;16.52;73.72
51878;SHT31;37911;51.526;11.536;2023-05-10T09:28:50;16.62;74.05
51878;SHT31;37911;51.526;11.536;2023-05-10T09:31:57;16.67;74.20
51878;SHT31;37911;51.526;11.536;2023-05-10T09:35:06;16.70;73.83
51878;SHT31;37911;51.526;11.536;2023-05-10T09:38:09;16.59;73.99
51878;SHT31;37911;51.526;11.536;2023-05-10T09:41:17;16.55;73.66
51878;SHT31;37911;51.526;11.536;2023-05-10T09:44:20;16.56;73.65
51878;SHT31;37911;51.526;11.536;2023-05-10T09:47:26;16.48;73.27
51878;SHT31;37911;51.526;11.536;2023-05-10T09:50:30;16.60;73.35
51878;SHT31;37911;51.526;11.536;2023-05-10T09:53:34;16.56;73.66
51878;SHT31;37911;51.526;11.536;2023-05-10T09:56:38;16.63;73.90
51878;SHT31;37911;51.526;11.536;2023-05-10T09:59:42;16.57;74.22
51878;SHT31;37911;51.526;11.536;2023-05-10T10:02:54;16.65;74.79
51878;SHT31;37911;51.526;11.536;2023-05-10T10:05:57;16.66;74.30
51878;SHT31;37911;51.526;11.536;2023-05-10T10:09:01;16.63;74.87
51878;SHT31;37911;51.526;11.536;2023-05-10T10:12:05;16.62;74.98
51878;SHT31;37911;51.526;11.536;2023-05-10T10:15:09;16.65;75.00
51878;SHT31;37911;51.526;11.536;2023-05-10T10:18:15;16.66;75.23
51878;SHT31;37911;51.526;11.536;2023-05-10T10:21:20;16.59;75.39
51878;SHT31;37911;51.526;11.536;2023-05-10T10:24:23;16.56;75.46
51878;SHT31;37911;51.526;11.536;2023-05-10T10:27:39;16.59;75.05
51878;SHT31;37911;51.526;11.536;2023-05-10T10:30:47;16.65;75.05
51878;SHT31;37911;51.526;11.536;2023-05-10T10:33:59;16.63;75.89
51878;SHT31;37911;51.526;11.536;2023-05-10T10:37:04;16.63;75.48
51878;SHT31;37911;51.526;11.536;2023-05-10T10:40:23;16.69;76.11
51878;SHT31;37911;51.526;11.536;2023-05-10T10:43:27;16.80;75.86
51878;SHT31;37911;51.526;11.536;2023-05-10T10:46:33;16.70;75.58
51878;SHT31;37911;51.526;11.536;2023-05-10T10:49:43;16.84;75.79
51878;SHT31;37911;51.526;11.536;2023-05-10T10:52:47;16.94;74.90
51878;SHT31;37911;51.526;11.536;2023-05-10T10:56:04;16.97;75.82
51878;SHT31;37911;51.526;11.536;2023-05-10T10:59:08;16.97;74.93
51878;SHT31;37911;51.526;11.536;2023-05-10T11:02:32;16.93;74.58
51878;SHT31;37911;51.526;11.536;2023-05-10T11:05:40;16.91;74.72
51878;SHT31;37911;51.526;11.536;2023-05-10T11:08:43;17.08;75.52
51878;SHT31;37911;51.526;11.536;2023-05-10T11:11:52;17.10;77.24
51878;SHT31;37911;51.526;11.536;2023-05-10T11:14:57;17.31;76.28
51878;SHT31;37911;51.526;11.536;2023-05-10T11:18:17;17.34;75.41
51878;SHT31;37911;51.526;11.536;2023-05-10T11:21:23;17.40;76.09
51878;SHT31;37911;51.526;11.536;2023-05-10T11:24:27;17.44;75.99
51878;SHT31;37911;51.526;11.536;2023-05-10T11:27:30;17.40;74.87
51878;SHT31;37911;51.526;11.536;2023-05-10T11:30:33;17.34;75.19
51878;SHT31;37911;51.526;11.536;2023-05-10T11:33:42;17.18;75.00
51878;SHT31;37911;51.526;11.536;2023-05-10T11:36:51;17.02;75.35
51878;SHT31;37911;51.526;11.536;2023-05-10T11:39:54;16.86;76.34
51878;SHT31;37911;51.526;11.536;2023-05-10T11:42:58;16.73;76.34
51878;SHT31;37911;51.526;11.536;2023-05-10T11:46:01;16.62;76.42
51878;SHT31;37911;51.526;11.536;2023-05-10T11:49:07;16.53;76.07
51878;SHT31;37911;51.526;11.536;2023-05-10T11:52:13;16.52;75.79
51878;SHT31;37911;51.526;11.536;2023-05-10T11:55:16;16.33;76.77
51878;SHT31;37911;51.526;11.536;2023-05-10T11:58:19;16.16;77.65
51878;SHT31;37911;51.526;11.536;2023-05-10T12:01:24;16.12;78.49
51878;SHT31;37911;51.526;11.536;2023-05-10T12:04:27;16.06;78.33
51878;SHT31;37911;51.526;11.536;2023-05-10T12:07:33;16.11;78.90
51878;SHT31;37911;51.526;11.536;2023-05-10T12:10:36;16.16;78.59
51878;SHT31;37911;51.526;11.536;2023-05-10T12:13:40;16.12;78.18
51878;SHT31;37911;51.526;11.536;2023-05-10T12:16:47;16.08;78.43
51878;SHT31;37911;51.526;11.536;2023-05-10T12:19:51;16.09;78.04
51878;SHT31;37911;51.526;11.536;2023-05-10T12:22:58;16.13;77.87
51878;SHT31;37911;51.526;11.536;2023-05-10T12:26:03;16.32;77.93
51878;SHT31;37911;51.526;11.536;2023-05-10T12:29:14;16.43;77.71
51878;SHT31;37911;51.526;11.536;2023-05-10T12:32:17;16.62;77.24
51878;SHT31;37911;51.526;11.536;2023-05-10T12:35:21;16.76;75.50
51878;SHT31;37911;51.526;11.536;2023-05-10T12:38:28;16.93;75.43
51878;SHT31;37911;51.526;11.536;2023-05-10T12:41:32;17.11;75.84
51878;SHT31;37911;51.526;11.536;2023-05-10T12:44:35;17.23;74.71
51878;SHT31;37911;51.526;11.536;2023-05-10T12:47:38;17.32;73.26
51878;SHT31;37911;51.526;11.536;2023-05-10T12:50:41;17.50;71.71
51878;SHT31;37911;51.526;11.536;2023-05-10T12:53:47;17.69;71.74
51878;SHT31;37911;51.526;11.536;2023-05-10T12:56:51;17.83;70.80
51878;SHT31;37911;51.526;11.536;2023-05-10T12:59:55;17.92;69.33
51878;SHT31;37911;51.526;11.536;2023-05-10T13:02:58;17.98;68.39
51878;SHT31;37911;51.526;11.536;2023-05-10T13:06:01;17.99;68.61
51878;SHT31;37911;51.526;11.536;2023-05-10T13:09:07;17.81;67.79
51878;SHT31;37911;51.526;11.536;2023-05-10T13:12:10;17.83;68.80
51878;SHT31;37911;51.526;11.536;2023-05-10T13:15:14;17.91;69.80
51878;SHT31;37911;51.526;11.536;2023-05-10T13:18:17;17.95;70.20
51878;SHT31;37911;51.526;11.536;2023-05-10T13:21:20;17.99;69.77
51878;SHT31;37911;51.526;11.536;2023-05-10T13:24:27;18.05;69.65
51878;SHT31;37911;51.526;11.536;2023-05-10T13:27:30;18.21;67.89
51878;SHT31;37911;51.526;11.536;2023-05-10T13:30:34;18.29;69.76
51878;SHT31;37911;51.526;11.536;2023-05-10T13:33:37;18.36;68.75
51878;SHT31;37911;51.526;11.536;2023-05-10T13:36:40;18.42;67.72
51878;SHT31;37911;51.526;11.536;2023-05-10T13:39:46;18.54;69.28
51878;SHT31;37911;51.526;11.536;2023-05-10T13:42:49;18.70;69.10
51878;SHT31;37911;51.526;11.536;2023-05-10T13:45:53;18.77;68.81
51878;SHT31;37911;51.526;11.536;2023-05-10T13:48:56;18.78;66.40
51878;SHT31;37911;51.526;11.536;2023-05-10T13:52:00;18.81;66.75
51878;SHT31;37911;51.526;11.536;2023-05-10T13:55:09;18.93;65.69
51878;SHT31;37911;51.526;11.536;2023-05-10T13:58:13;19.01;65.82
51878;SHT31;37911;51.526;11.536;2023-05-10T14:01:16;19.01;65.63
51878;SHT31;37911;51.526;11.536;2023-05-10T14:04:20;19.01;66.23
51878;SHT31;37911;51.526;11.536;2023-05-10T14:07:23;19.00;64.32
51878;SHT31;37911;51.526;11.536;2023-05-10T14:10:29;19.01;65.06
51878;SHT31;37911;51.526;11.536;2023-05-10T14:13:33;19.07;63.66
51878;SHT31;37911;51.526;11.536;2023-05-10T14:16:36;18.90;65.46
51878;SHT31;37911;51.526;11.536;2023-05-10T14:19:39;19.06;65.72
51878;SHT31;37911;51.526;11.536;2023-05-10T14:22:42;19.07;64.52
51878;SHT31;37911;51.526;11.536;2023-05-10T14:25:49;19.07;65.65
51878;SHT31;37911;51.526;11.536;2023-05-10T14:28:52;19.18;65.69
51878;SHT31;37911;51.526;11.536;2023-05-10T14:31:55;19.15;64.59
51878;SHT31;37911;51.526;11.536;2023-05-10T14:34:59;18.96;64.37
51878;SHT31;37911;51.526;11.536;2023-05-10T14:38:02;18.94;65.22
51878;SHT31;37911;51.526;11.536;2023-05-10T14:41:09;18.90;64.92
51878;SHT31;37911;51.526;11.536;2023-05-10T14:44:14;18.63;64.60
51878;SHT31;37911;51.526;11.536;2023-05-10T14:47:18;18.57;65.96
51878;SHT31;37911;51.526;11.536;2023-05-10T14:50:22;18.49;67.15
51878;SHT31;37911;51.526;11.536;2023-05-10T14:53:25;18.30;68.09
51878;SHT31;37911;51.526;11.536;2023-05-10T14:56:31;17.99;68.88
51878;SHT31;37911;51.526;11.536;2023-05-10T14:59:35;17.78;69.48
51878;SHT31;37911;51.526;11.536;2023-05-10T15:02:38;17.55;69.77
51878;SHT31;37911;51.526;11.536;2023-05-10T15:05:41;17.45;70.33
51878;SHT31;37911;51.526;11.536;2023-05-10T15:08:45;17.41;70.68
51878;SHT31;37911;51.526;11.536;2023-05-10T15:11:51;17.31;71.31
51878;SHT31;37911;51.526;11.536;2023-05-10T15:14:54;17.31;71.53
51878;SHT31;37911;51.526;11.536;2023-05-10T15:17:57;17.28;72.06
51878;SHT31;37911;51.526;11.536;2023-05-10T15:21:01;17.34;71.92
51878;SHT31;37911;51.526;11.536;2023-05-10T15:24:04;17.34;71.64
51878;SHT31;37911;51.526;11.536;2023-05-10T15:27:10;17.34;72.20
51878;SHT31;37911;51.526;11.536;2023-05-10T15:30:14;17.40;72.37
51878;SHT31;37911;51.526;11.536;2023-05-10T15:33:17;17.44;72.70
51878;SHT31;37911;51.526;11.536;2023-05-10T15:36:20;17.41;72.43
51878;SHT31;37911;51.526;11.536;2023-05-10T15:39:24;17.47;72.20
51878;SHT31;37911;51.526;11.536;2023-05-10T15:42:30;17.44;72.32
51878;SHT31;37911;51.526;11.536;2023-05-10T15:45:34;17.48;72.38
51878;SHT31;37911;51.526;11.536;2023-05-10T15:48:37;17.35;72.61
51878;SHT31;37911;51.526;11.536;2023-05-10T15:51:40;17.44;72.66
51878;SHT31;37911;51.526;11.536;2023-05-10T15:54:43;17.47;73.40
51878;SHT31;37911;51.526;11.536;2023-05-10T15:57:49;17.51;74.11
51878;SHT31;37911;51.526;11.536;2023-05-10T16:00:52;17.51;73.54
51878;SHT31;37911;51.526;11.536;2023-05-10T16:03:57;17.52;73.25
51878;SHT31;37911;51.526;11.536;2023-05-10T16:07:01;17.64;73.05
51878;SHT31;37911;51.526;11.536;2023-05-10T16:10:06;17.62;72.31
51878;SHT31;37911;51.526;11.536;2023-05-10T16:13:12;17.64;72.49
51878;SHT31;37911;51.526;11.536;2023-05-10T16:16:16;17.52;72.50
51878;SHT31;37911;51.526;11.536;2023-05-10T16:19:19;17.50;72.52
51878;SHT31;37911;51.526;11.536;2023-05-10T16:22:24;17.37;73.02
51878;SHT31;37911;51.526;11.536;2023-05-10T16:25:28;17.31;73.06
51878;SHT31;37911;51.526;11.536;2023-05-10T16:28:34;17.32;73.42
51878;SHT31;37911;51.526;11.536;2023-05-10T16:31:38;17.31;73.26
51878;SHT31;37911;51.526;11.536;2023-05-10T16:34:41;17.35;73.66
51878;SHT31;37911;51.526;11.536;2023-05-10T16:37:44;17.37;73.58
51878;SHT31;37911;51.526;11.536;2023-05-10T16:40:47;17.34;73.73
51878;SHT31;37911;51.526;11.536;2023-05-10T16:43:53;17.27;73.85
51878;SHT31;37911;51.526;11.536;2023-05-10T16:46:59;17.28;73.89
51878;SHT31;37911;51.526;11.536;2023-05-10T16:50:04;17.32;73.92
51878;SHT31;37911;51.526;11.536;2023-05-10T16:53:08;17.30;73.96
51878;SHT31;37911;51.526;11.536;2023-05-10T16:56:11;17.31;73.81
51878;SHT31;37911;51.526;11.536;2023-05-10T16:59:19;17.31;73.24
51878;SHT31;37911;51.526;11.536;2023-05-10T17:02:22;17.32;72.56
51878;SHT31;37911;51.526;11.536;2023-05-10T17:05:26;17.35;72.27
51878;SHT31;37911;51.526;11.536;2023-05-10T17:08:29;17.35;72.02
51878;SHT31;37911;51.526;11.536;2023-05-10T17:11:33;17.27;72.16
51878;SHT31;37911;51.526;11.536;2023-05-10T17:14:38;17.23;72.68
51878;SHT31;37911;51.526;11.536;2023-05-10T17:17:42;17.20;72.87
51878;SHT31;37911;51.526;11.536;2023-05-10T17:20:45;17.14;73.06
51878;SHT31;37911;51.526;11.536;2023-05-10T17:23:49;17.10;73.26
51878;SHT31;37911;51.526;11.536;2023-05-10T17:26:52;17.10;73.29
51878;SHT31;37911;51.526;11.536;2023-05-10T17:29:58;17.06;73.54
51878;SHT31;37911;51.526;11.536;2023-05-10T17:33:02;16.97;73.83
51878;SHT31;37911;51.526;11.536;2023-05-10T17:36:06;16.93;74.35
51878;SHT31;37911;51.526;11.536;2023-05-10T17:39:09;16.87;74.83
51878;SHT31;37911;51.526;11.536;2023-05-10T17:42:12;16.86;75.07
51878;SHT31;37911;51.526;11.536;2023-05-10T17:45:20;16.76;75.65
51878;SHT31;37911;51.526;11.536;2023-05-10T17:48:23;16.75;75.86
51878;SHT31;37911;51.526;11.536;2023-05-10T17:51:27;16.72;76.32
51878;SHT31;37911;51.526;11.536;2023-05-10T17:54:30;16.69;76.48
51878;SHT31;37911;51.526;11.536;2023-05-10T17:57:33;16.66;76.60
51878;SHT31;37911;51.526;11.536;2023-05-10T18:00:40;16.62;76.77
51878;SHT31;37911;51.526;11.536;2023-05-10T18:03:43;16.59;76.73
51878;SHT31;37911;51.526;11.536;2023-05-10T18:06:48;16.55;76.83
51878;SHT31;37911;51.526;11.536;2023-05-10T18:09:54;16.43;76.65
51878;SHT31;37911;51.526;11.536;2023-05-10T18:12:57;16.43;76.68
51878;SHT31;37911;51.526;11.536;2023-05-10T18:16:04;16.36;76.91
51878;SHT31;37911;51.526;11.536;2023-05-10T18:19:11;16.32;77.09
51878;SHT31;37911;51.526;11.536;2023-05-10T18:22:15;16.32;77.23
51878;SHT31;37911;51.526;11.536;2023-05-10T18:25:19;16.28;77.54
51878;SHT31;37911;51.526;11.536;2023-05-10T18:28:22;16.26;77.57
51878;SHT31;37911;51.526;11.536;2023-05-10T18:31:28;16.26;77.49
51878;SHT31;37911;51.526;11.536;2023-05-10T18:34:32;16.21;78.22
51878;SHT31;37911;51.526;11.536;2023-05-10T18:37:35;16.13;78.43
51878;SHT31;37911;51.526;11.536;2023-05-10T18:40:39;16.08;78.60
51878;SHT31;37911;51.526;11.536;2023-05-10T18:43:43;16.01;78.68
51878;SHT31;37911;51.526;11.536;2023-05-10T18:46:49;16.01;78.58
51878;SHT31;37911;51.526;11.536;2023-05-10T18:49:53;15.94;78.76
51878;SHT31;37911;51.526;11.536;2023-05-10T18:52:57;15.94;78.99
51878;SHT31;37911;51.526;11.536;2023-05-10T18:56:00;15.92;78.81
51878;SHT31;37911;51.526;11.536;2023-05-10T18:59:03;15.74;79.79
51878;SHT31;37911;51.526;11.536;2023-05-10T19:02:09;15.71;79.75
51878;SHT31;37911;51.526;11.536;2023-05-10T19:05:13;15.67;79.82
51878;SHT31;37911;51.526;11.536;2023-05-10T19:08:16;15.64;79.81